sensor_id;sensor_type;location;lat;lon;timestamp;P1;durP1;ratioP1;P2;durP2;ratioP2
9942;SDS011;5010;45.080;7.634;2023-02-18T00:01:16;17.10;;;15.32;;
9942;SDS011;5010;45.080;7.634;2023-02-18T00:03:45;17.58;;;14.75;;
9942;SDS011;5010;45.080;7.634;2023-02-18T00:06:15;15.93;;;13.18;;
9942;SDS011;5010;45.080;7.634;2023-02-18T00:08:43;15.60;;;14.35;;
9942;SDS011;5010;45.080;7.634;2023-02-18T00:11:11;22.67;;;16.60;;
9942;SDS011;5010;45.080;7.634;2023-02-18T00:13:39;19.65;;;17.92;;
9942;SDS011;5010;45.080;7.634;2023-02-18T00:16:06;18.60;;;13.43;;
9942;SDS011;5010;45.080;7.634;2023-02-18T00:18:34;19.35;;;15.73;;
9942;SDS011;5010;45.080;7.634;2023-02-18T00:21:01;18.38;;;13.80;;
9942;SDS011;5010;45.080;7.634;2023-02-18T00:23:30;19.38;;;16.25;;
9942;SDS011;5010;45.080;7.634;2023-02-18T00:25:58;19.48;;;13.65;;
9942;SDS011;5010;45.080;7.634;2023-02-18T00:28:25;22.73;;;17.10;;
9942;SDS011;5010;45.080;7.634;2023-02-18T00:30:52;18.13;;;13.68;;
9942;SDS011;5010;45.080;7.634;2023-02-18T00:33:19;17.35;;;15.02;;
9942;SDS011;5010;45.080;7.634;2023-02-18T00:35:46;16.10;;;14.10;;
9942;SDS011;5010;45.080;7.634;2023-02-18T00:38:13;14.90;;;12.85;;
9942;SDS011;5010;45.080;7.634;2023-02-18T00:40:42;15.32;;;13.50;;
9942;SDS011;5010;45.080;7.634;2023-02-18T00:43:09;15.88;;;12.40;;
9942;SDS011;5010;45.080;7.634;2023-02-18T00:45:36;14.02;;;12.15;;
9942;SDS011;5010;45.080;7.634;2023-02-18T00:48:03;13.68;;;11.65;;
9942;SDS011;5010;45.080;7.634;2023-02-18T00:50:30;16.48;;;13.50;;
9942;SDS011;5010;45.080;7.634;2023-02-18T00:52:57;14.45;;;13.75;;
9942;SDS011;5010;45.080;7.634;2023-02-18T00:55:23;16.00;;;13.95;;
9942;SDS011;5010;45.080;7.634;2023-02-18T00:57:52;16.88;;;14.48;;
9942;SDS011;5010;45.080;7.634;2023-02-18T01:00:19;16.55;;;12.60;;
9942;SDS011;5010;45.080;7.634;2023-02-18T01:02:46;11.23;;;10.57;;
9942;SDS011;5010;45.080;7.634;2023-02-18T01:05:17;19.25;;;14.23;;
9942;SDS011;5010;45.080;7.634;2023-02-18T01:07:44;14.55;;;11.60;;
9942;SDS011;5010;45.080;7.634;2023-02-18T01:10:11;17.52;;;14.10;;
9942;SDS011;5010;45.080;7.634;2023-02-18T01:12:38;17.40;;;12.93;;
9942;SDS011;5010;45.080;7.634;2023-02-18T01:15:07;13.20;;;12.27;;
9942;SDS011;5010;45.080;7.634;2023-02-18T01:17:34;13.68;;;12.13;;
9942;SDS011;5010;45.080;7.634;2023-02-18T01:20:01;14.43;;;11.40;;
9942;SDS011;5010;45.080;7.634;2023-02-18T01:22:28;11.88;;;11.05;;
9942;SDS011;5010;45.080;7.634;2023-02-18T01:24:55;13.60;;;12.48;;
9942;SDS011;5010;45.080;7.634;2023-02-18T01:27:22;16.67;;;12.35;;
9942;SDS011;5010;45.080;7.634;2023-02-18T01:29:49;15.38;;;12.90;;
9942;SDS011;5010;45.080;7.634;2023-02-18T01:32:17;15.30;;;13.80;;
9942;SDS011;5010;45.080;7.634;2023-02-18T01:34:44;14.13;;;13.25;;
9942;SDS011;5010;45.080;7.634;2023-02-18T01:37:11;16.60;;;13.60;;
9942;SDS011;5010;45.080;7.634;2023-02-18T01:39:38;14.05;;;13.35;;
9942;SDS011;5010;45.080;7.634;2023-02-18T01:42:05;14.73;;;11.95;;
9942;SDS011;5010;45.080;7.634;2023-02-18T01:44:33;16.08;;;13.48;;
9942;SDS011;5010;45.080;7.634;2023-02-18T01:46:59;14.35;;;13.65;;
9942;SDS011;5010;45.080;7.634;2023-02-18T01:49:29;14.40;;;13.65;;
9942;SDS011;5010;45.080;7.634;2023-02-18T01:52:00;15.75;;;14.70;;
9942;SDS011;5010;45.080;7.634;2023-02-18T01:54:30;16.50;;;13.75;;
9942;SDS011;5010;45.080;7.634;2023-02-18T01:56:59;17.38;;;13.60;;
9942;SDS011;5010;45.080;7.634;2023-02-18T01:59:28;14.68;;;11.93;;
9942;SDS011;5010;45.080;7.634;2023-02-18T02:01:58;13.40;;;12.70;;
9942;SDS011;5010;45.080;7.634;2023-02-18T02:04:25;13.23;;;12.43;;
9942;SDS011;5010;45.080;7.634;2023-02-18T02:06:54;12.88;;;11.32;;
9942;SDS011;5010;45.080;7.634;2023-02-18T02:09:21;14.65;;;11.68;;
9942;SDS011;5010;45.080;7.634;2023-02-18T02:12:01;11.85;;;11.18;;
9942;SDS011;5010;45.080;7.634;2023-02-18T02:14:49;14.50;;;11.70;;
9942;SDS011;5010;45.080;7.634;2023-02-18T02:17:34;12.50;;;9.18;;
9942;SDS011;5010;45.080;7.634;2023-02-18T02:20:28;13.82;;;11.93;;
9942;SDS011;5010;45.080;7.634;2023-02-18T02:23:33;12.27;;;10.25;;
9942;SDS011;5010;45.080;7.634;2023-02-18T02:29:38;14.07;;;12.38;;
9942;SDS011;5010;45.080;7.634;2023-02-18T02:32:31;13.57;;;11.80;;
9942;SDS011;5010;45.080;7.634;2023-02-18T02:35:16;13.98;;;9.85;;
9942;SDS011;5010;45.080;7.634;2023-02-18T02:37:48;13.63;;;11.30;;
9942;SDS011;5010;45.080;7.634;2023-02-18T02:40:22;13.23;;;10.32;;
9942;SDS011;5010;45.080;7.634;2023-02-18T02:42:56;12.85;;;11.68;;
9942;SDS011;5010;45.080;7.634;2023-02-18T02:45:34;13.15;;;11.57;;
9942;SDS011;5010;45.080;7.634;2023-02-18T02:48:10;15.15;;;12.50;;
9942;SDS011;5010;45.080;7.634;2023-02-18T02:50:44;13.85;;;13.13;;
9942;SDS011;5010;45.080;7.634;2023-02-18T02:53:15;13.80;;;12.60;;
9942;SDS011;5010;45.080;7.634;2023-02-18T02:55:46;11.77;;;11.15;;
9942;SDS011;5010;45.080;7.634;2023-02-18T02:58:14;13.50;;;10.57;;
9942;SDS011;5010;45.080;7.634;2023-02-18T03:00:46;13.75;;;11.65;;
9942;SDS011;5010;45.080;7.634;2023-02-18T03:03:26;14.10;;;11.10;;
9942;SDS011;5010;45.080;7.634;2023-02-18T03:06:31;10.88;;;9.00;;
9942;SDS011;5010;45.080;7.634;2023-02-18T03:09:09;11.65;;;10.05;;
9942;SDS011;5010;45.080;7.634;2023-02-18T03:11:43;13.68;;;10.63;;
9942;SDS011;5010;45.080;7.634;2023-02-18T03:14:20;12.85;;;11.38;;
9942;SDS011;5010;45.080;7.634;2023-02-18T03:16:55;12.50;;;11.05;;
9942;SDS011;5010;45.080;7.634;2023-02-18T03:19:28;11.85;;;11.25;;
9942;SDS011;5010;45.080;7.634;2023-02-18T03:22:02;12.30;;;11.70;;
9942;SDS011;5010;45.080;7.634;2023-02-18T03:24:35;12.98;;;9.88;;
9942;SDS011;5010;45.080;7.634;2023-02-18T03:27:05;13.30;;;11.18;;
9942;SDS011;5010;45.080;7.634;2023-02-18T03:29:35;11.43;;;9.50;;
9942;SDS011;5010;45.080;7.634;2023-02-18T03:32:04;14.00;;;10.07;;
9942;SDS011;5010;45.080;7.634;2023-02-18T03:34:34;13.82;;;10.63;;
9942;SDS011;5010;45.080;7.634;2023-02-18T03:37:08;11.00;;;9.80;;
9942;SDS011;5010;45.080;7.634;2023-02-18T03:39:36;12.57;;;11.82;;
9942;SDS011;5010;45.080;7.634;2023-02-18T03:42:07;18.42;;;12.00;;
9942;SDS011;5010;45.080;7.634;2023-02-18T03:44:34;11.95;;;11.25;;
9942;SDS011;5010;45.080;7.634;2023-02-18T03:47:01;13.48;;;10.32;;
9942;SDS011;5010;45.080;7.634;2023-02-18T03:49:28;11.00;;;9.90;;
9942;SDS011;5010;45.080;7.634;2023-02-18T03:51:55;10.90;;;9.20;;
9942;SDS011;5010;45.080;7.634;2023-02-18T03:54:23;12.95;;;10.68;;
9942;SDS011;5010;45.080;7.634;2023-02-18T03:56:50;11.57;;;9.77;;
9942;SDS011;5010;45.080;7.634;2023-02-18T03:59:16;11.50;;;9.95;;
9942;SDS011;5010;45.080;7.634;2023-02-18T04:01:43;12.88;;;12.18;;
9942;SDS011;5010;45.080;7.634;2023-02-18T04:04:10;12.52;;;11.65;;
9942;SDS011;5010;45.080;7.634;2023-02-18T04:06:37;13.23;;;10.13;;
9942;SDS011;5010;45.080;7.634;2023-02-18T04:09:04;10.77;;;9.15;;
9942;SDS011;5010;45.080;7.634;2023-02-18T04:11:34;11.55;;;9.00;;
9942;SDS011;5010;45.080;7.634;2023-02-18T04:14:02;12.23;;;9.45;;
9942;SDS011;5010;45.080;7.634;2023-02-18T04:16:29;10.52;;;9.70;;
9942;SDS011;5010;45.080;7.634;2023-02-18T04:18:57;10.15;;;8.38;;
9942;SDS011;5010;45.080;7.634;2023-02-18T04:21:23;11.00;;;9.05;;
9942;SDS011;5010;45.080;7.634;2023-02-18T04:23:50;9.77;;;8.18;;
9942;SDS011;5010;45.080;7.634;2023-02-18T04:26:17;10.52;;;8.90;;
9942;SDS011;5010;45.080;7.634;2023-02-18T04:28:45;11.80;;;9.60;;
9942;SDS011;5010;45.080;7.634;2023-02-18T04:31:12;13.63;;;9.95;;
9942;SDS011;5010;45.080;7.634;2023-02-18T04:33:40;12.85;;;10.20;;
9942;SDS011;5010;45.080;7.634;2023-02-18T04:36:07;11.35;;;9.93;;
9942;SDS011;5010;45.080;7.634;2023-02-18T04:38:40;12.30;;;9.95;;
9942;SDS011;5010;45.080;7.634;2023-02-18T04:41:07;9.27;;;8.77;;
9942;SDS011;5010;45.080;7.634;2023-02-18T04:43:34;11.13;;;9.10;;
9942;SDS011;5010;45.080;7.634;2023-02-18T04:46:02;12.13;;;9.15;;
9942;SDS011;5010;45.080;7.634;2023-02-18T04:48:29;10.70;;;9.05;;
9942;SDS011;5010;45.080;7.634;2023-02-18T04:50:56;10.02;;;7.80;;
9942;SDS011;5010;45.080;7.634;2023-02-18T04:53:23;12.00;;;9.55;;
9942;SDS011;5010;45.080;7.634;2023-02-18T04:55:50;11.23;;;9.27;;
9942;SDS011;5010;45.080;7.634;2023-02-18T04:58:18;11.07;;;10.07;;
9942;SDS011;5010;45.080;7.634;2023-02-18T05:00:45;10.77;;;10.18;;
9942;SDS011;5010;45.080;7.634;2023-02-18T05:03:14;11.32;;;9.40;;
9942;SDS011;5010;45.080;7.634;2023-02-18T05:05:41;11.60;;;9.65;;
9942;SDS011;5010;45.080;7.634;2023-02-18T05:08:07;12.52;;;9.60;;
9942;SDS011;5010;45.080;7.634;2023-02-18T05:10:35;9.93;;;8.52;;
9942;SDS011;5010;45.080;7.634;2023-02-18T05:13:03;9.75;;;7.95;;
9942;SDS011;5010;45.080;7.634;2023-02-18T05:15:30;12.73;;;9.02;;
9942;SDS011;5010;45.080;7.634;2023-02-18T05:17:57;9.55;;;8.38;;
9942;SDS011;5010;45.080;7.634;2023-02-18T05:20:25;11.02;;;9.75;;
9942;SDS011;5010;45.080;7.634;2023-02-18T05:22:52;10.55;;;9.30;;
9942;SDS011;5010;45.080;7.634;2023-02-18T05:25:19;13.10;;;9.07;;
9942;SDS011;5010;45.080;7.634;2023-02-18T05:27:46;11.30;;;8.75;;
9942;SDS011;5010;45.080;7.634;2023-02-18T05:30:13;12.30;;;10.15;;
9942;SDS011;5010;45.080;7.634;2023-02-18T05:32:40;12.25;;;8.88;;
9942;SDS011;5010;45.080;7.634;2023-02-18T05:35:08;11.70;;;8.98;;
9942;SDS011;5010;45.080;7.634;2023-02-18T05:37:36;15.93;;;8.68;;
9942;SDS011;5010;45.080;7.634;2023-02-18T05:40:03;11.00;;;9.82;;
9942;SDS011;5010;45.080;7.634;2023-02-18T05:42:31;11.38;;;8.93;;
9942;SDS011;5010;45.080;7.634;2023-02-18T05:44:58;10.52;;;8.55;;
9942;SDS011;5010;45.080;7.634;2023-02-18T05:47:24;11.60;;;8.35;;
9942;SDS011;5010;45.080;7.634;2023-02-18T05:49:51;11.70;;;10.10;;
9942;SDS011;5010;45.080;7.634;2023-02-18T05:52:20;10.68;;;9.85;;
9942;SDS011;5010;45.080;7.634;2023-02-18T05:54:48;9.52;;;8.80;;
9942;SDS011;5010;45.080;7.634;2023-02-18T05:57:15;11.48;;;10.68;;
9942;SDS011;5010;45.080;7.634;2023-02-18T05:59:42;12.20;;;10.10;;
9942;SDS011;5010;45.080;7.634;2023-02-18T06:02:09;10.95;;;9.25;;
9942;SDS011;5010;45.080;7.634;2023-02-18T06:04:36;11.57;;;9.77;;
9942;SDS011;5010;45.080;7.634;2023-02-18T06:07:03;12.13;;;9.82;;
9942;SDS011;5010;45.080;7.634;2023-02-18T06:09:30;10.85;;;9.15;;
9942;SDS011;5010;45.080;7.634;2023-02-18T06:11:58;13.27;;;9.52;;
9942;SDS011;5010;45.080;7.634;2023-02-18T06:14:25;11.55;;;8.68;;
9942;SDS011;5010;45.080;7.634;2023-02-18T06:16:52;12.13;;;9.32;;
9942;SDS011;5010;45.080;7.634;2023-02-18T06:19:19;13.40;;;9.07;;
9942;SDS011;5010;45.080;7.634;2023-02-18T06:21:46;16.20;;;9.75;;
9942;SDS011;5010;45.080;7.634;2023-02-18T06:24:13;15.40;;;9.48;;
9942;SDS011;5010;45.080;7.634;2023-02-18T06:26:40;9.23;;;8.45;;
9942;SDS011;5010;45.080;7.634;2023-02-18T06:29:09;10.55;;;8.63;;
9942;SDS011;5010;45.080;7.634;2023-02-18T06:31:36;10.93;;;9.38;;
9942;SDS011;5010;45.080;7.634;2023-02-18T06:34:02;13.35;;;9.90;;
9942;SDS011;5010;45.080;7.634;2023-02-18T06:36:29;10.95;;;8.85;;
9942;SDS011;5010;45.080;7.634;2023-02-18T06:38:56;10.48;;;9.95;;
9942;SDS011;5010;45.080;7.634;2023-02-18T06:41:23;10.00;;;8.45;;
9942;SDS011;5010;45.080;7.634;2023-02-18T06:43:50;11.60;;;9.30;;
9942;SDS011;5010;45.080;7.634;2023-02-18T06:46:19;10.13;;;8.90;;
9942;SDS011;5010;45.080;7.634;2023-02-18T06:48:46;11.10;;;10.10;;
9942;SDS011;5010;45.080;7.634;2023-02-18T06:51:13;11.23;;;9.50;;
9942;SDS011;5010;45.080;7.634;2023-02-18T06:53:41;11.23;;;9.98;;
9942;SDS011;5010;45.080;7.634;2023-02-18T06:56:08;10.70;;;8.98;;
9942;SDS011;5010;45.080;7.634;2023-02-18T06:58:35;10.95;;;9.75;;
9942;SDS011;5010;45.080;7.634;2023-02-18T07:01:02;9.88;;;8.82;;
9942;SDS011;5010;45.080;7.634;2023-02-18T07:03:31;10.90;;;8.85;;
9942;SDS011;5010;45.080;7.634;2023-02-18T07:05:58;10.63;;;9.75;;
9942;SDS011;5010;45.080;7.634;2023-02-18T07:08:25;11.77;;;9.80;;
9942;SDS011;5010;45.080;7.634;2023-02-18T07:10:54;10.48;;;9.95;;
9942;SDS011;5010;45.080;7.634;2023-02-18T07:13:21;12.20;;;10.10;;
9942;SDS011;5010;45.080;7.634;2023-02-18T07:15:48;10.82;;;9.10;;
9942;SDS011;5010;45.080;7.634;2023-02-18T07:18:15;11.77;;;8.60;;
9942;SDS011;5010;45.080;7.634;2023-02-18T07:20:43;9.52;;;8.77;;
9942;SDS011;5010;45.080;7.634;2023-02-18T07:23:10;12.88;;;9.30;;
9942;SDS011;5010;45.080;7.634;2023-02-18T07:25:36;10.30;;;8.85;;
9942;SDS011;5010;45.080;7.634;2023-02-18T07:28:03;11.45;;;8.48;;
9942;SDS011;5010;45.080;7.634;2023-02-18T07:30:30;9.15;;;8.68;;
9942;SDS011;5010;45.080;7.634;2023-02-18T07:32:57;9.60;;;8.05;;
9942;SDS011;5010;45.080;7.634;2023-02-18T07:35:24;10.00;;;9.48;;
9942;SDS011;5010;45.080;7.634;2023-02-18T07:37:52;10.38;;;8.80;;
9942;SDS011;5010;45.080;7.634;2023-02-18T07:40:20;9.20;;;8.48;;
9942;SDS011;5010;45.080;7.634;2023-02-18T07:42:47;12.13;;;10.48;;
9942;SDS011;5010;45.080;7.634;2023-02-18T07:45:14;9.30;;;8.20;;
9942;SDS011;5010;45.080;7.634;2023-02-18T07:47:41;11.35;;;9.48;;
9942;SDS011;5010;45.080;7.634;2023-02-18T07:50:09;10.45;;;9.63;;
9942;SDS011;5010;45.080;7.634;2023-02-18T07:52:37;10.52;;;9.25;;
9942;SDS011;5010;45.080;7.634;2023-02-18T07:55:05;11.48;;;8.73;;
9942;SDS011;5010;45.080;7.634;2023-02-18T07:57:32;11.73;;;9.35;;
9942;SDS011;5010;45.080;7.634;2023-02-18T08:00:19;12.38;;;9.50;;
9942;SDS011;5010;45.080;7.634;2023-02-18T08:02:46;10.60;;;9.48;;
9942;SDS011;5010;45.080;7.634;2023-02-18T08:05:13;15.35;;;11.75;;
9942;SDS011;5010;45.080;7.634;2023-02-18T08:07:40;10.10;;;8.63;;
9942;SDS011;5010;45.080;7.634;2023-02-18T08:10:09;13.07;;;9.80;;
9942;SDS011;5010;45.080;7.634;2023-02-18T08:12:36;14.02;;;10.77;;
9942;SDS011;5010;45.080;7.634;2023-02-18T08:15:03;11.98;;;9.93;;
9942;SDS011;5010;45.080;7.634;2023-02-18T08:17:30;9.77;;;9.30;;
9942;SDS011;5010;45.080;7.634;2023-02-18T08:19:57;12.75;;;10.05;;
9942;SDS011;5010;45.080;7.634;2023-02-18T08:22:24;11.75;;;10.20;;
9942;SDS011;5010;45.080;7.634;2023-02-18T08:24:52;12.75;;;10.05;;
9942;SDS011;5010;45.080;7.634;2023-02-18T08:27:21;10.95;;;8.95;;
9942;SDS011;5010;45.080;7.634;2023-02-18T08:29:49;13.40;;;9.70;;
9942;SDS011;5010;45.080;7.634;2023-02-18T08:32:16;10.30;;;9.68;;
9942;SDS011;5010;45.080;7.634;2023-02-18T08:34:43;14.23;;;11.15;;
9942;SDS011;5010;45.080;7.634;2023-02-18T08:37:10;13.27;;;10.20;;
9942;SDS011;5010;45.080;7.634;2023-02-18T08:39:37;13.57;;;10.70;;
9942;SDS011;5010;45.080;7.634;2023-02-18T08:42:04;14.25;;;13.00;;
9942;SDS011;5010;45.080;7.634;2023-02-18T08:44:32;17.35;;;11.85;;
9942;SDS011;5010;45.080;7.634;2023-02-18T08:46:59;13.98;;;12.38;;
9942;SDS011;5010;45.080;7.634;2023-02-18T08:49:26;15.20;;;14.43;;
9942;SDS011;5010;45.080;7.634;2023-02-18T08:51:53;18.48;;;13.40;;
9942;SDS011;5010;45.080;7.634;2023-02-18T08:54:20;16.58;;;15.73;;
9942;SDS011;5010;45.080;7.634;2023-02-18T08:56:47;19.25;;;18.25;;
9942;SDS011;5010;45.080;7.634;2023-02-18T08:59:15;24.42;;;20.95;;
9942;SDS011;5010;45.080;7.634;2023-02-18T09:01:43;20.65;;;19.65;;
9942;SDS011;5010;45.080;7.634;2023-02-18T09:04:10;15.80;;;15.00;;
9942;SDS011;5010;45.080;7.634;2023-02-18T09:06:37;17.63;;;16.67;;
9942;SDS011;5010;45.080;7.634;2023-02-18T09:09:04;19.67;;;18.67;;
9942;SDS011;5010;45.080;7.634;2023-02-18T09:11:31;21.85;;;18.42;;
9942;SDS011;5010;45.080;7.634;2023-02-18T09:13:58;22.58;;;18.73;;
9942;SDS011;5010;45.080;7.634;2023-02-18T09:16:25;16.27;;;15.48;;
9942;SDS011;5010;45.080;7.634;2023-02-18T09:18:53;19.50;;;17.27;;
9942;SDS011;5010;45.080;7.634;2023-02-18T09:21:20;19.45;;;16.30;;
9942;SDS011;5010;45.080;7.634;2023-02-18T09:23:48;20.23;;;15.55;;
9942;SDS011;5010;45.080;7.634;2023-02-18T09:26:16;16.42;;;15.35;;
9942;SDS011;5010;45.080;7.634;2023-02-18T09:28:48;16.85;;;15.00;;
9942;SDS011;5010;45.080;7.634;2023-02-18T09:31:19;17.33;;;16.20;;
9942;SDS011;5010;45.080;7.634;2023-02-18T09:33:49;13.10;;;12.30;;
9942;SDS011;5010;45.080;7.634;2023-02-18T09:36:19;13.30;;;12.60;;
9942;SDS011;5010;45.080;7.634;2023-02-18T09:38:45;15.32;;;14.00;;
9942;SDS011;5010;45.080;7.634;2023-02-18T09:41:14;12.45;;;11.48;;
9942;SDS011;5010;45.080;7.634;2023-02-18T09:43:50;14.20;;;13.05;;
9942;SDS011;5010;45.080;7.634;2023-02-18T09:46:20;14.88;;;12.98;;
9942;SDS011;5010;45.080;7.634;2023-02-18T09:48:50;13.23;;;12.25;;
9942;SDS011;5010;45.080;7.634;2023-02-18T09:51:19;14.30;;;13.23;;
9942;SDS011;5010;45.080;7.634;2023-02-18T09:53:46;15.07;;;13.23;;
9942;SDS011;5010;45.080;7.634;2023-02-18T09:56:14;11.65;;;10.90;;
9942;SDS011;5010;45.080;7.634;2023-02-18T09:58:45;14.50;;;12.65;;
9942;SDS011;5010;45.080;7.634;2023-02-18T10:01:16;16.90;;;12.45;;
9942;SDS011;5010;45.080;7.634;2023-02-18T10:03:48;13.52;;;11.75;;
9942;SDS011;5010;45.080;7.634;2023-02-18T10:06:17;20.20;;;12.65;;
9942;SDS011;5010;45.080;7.634;2023-02-18T10:08:50;15.40;;;14.60;;
9942;SDS011;5010;45.080;7.634;2023-02-18T10:11:21;13.30;;;12.57;;
9942;SDS011;5010;45.080;7.634;2023-02-18T10:13:53;14.18;;;12.32;;
9942;SDS011;5010;45.080;7.634;2023-02-18T10:16:21;17.50;;;13.10;;
9942;SDS011;5010;45.080;7.634;2023-02-18T10:18:50;13.48;;;12.77;;
9942;SDS011;5010;45.080;7.634;2023-02-18T10:21:23;12.45;;;11.18;;
9942;SDS011;5010;45.080;7.634;2023-02-18T10:23:53;12.85;;;10.75;;
9942;SDS011;5010;45.080;7.634;2023-02-18T10:26:24;11.50;;;9.15;;
9942;SDS011;5010;45.080;7.634;2023-02-18T10:28:52;13.13;;;12.43;;
9942;SDS011;5010;45.080;7.634;2023-02-18T10:31:19;15.80;;;12.75;;
9942;SDS011;5010;45.080;7.634;2023-02-18T10:33:51;16.13;;;11.88;;
9942;SDS011;5010;45.080;7.634;2023-02-18T10:36:26;15.80;;;14.30;;
9942;SDS011;5010;45.080;7.634;2023-02-18T10:39:18;19.20;;;16.90;;
9942;SDS011;5010;45.080;7.634;2023-02-18T10:41:59;21.15;;;18.20;;
9942;SDS011;5010;45.080;7.634;2023-02-18T10:44:35;19.90;;;17.23;;
9942;SDS011;5010;45.080;7.634;2023-02-18T10:47:13;18.92;;;17.30;;
9942;SDS011;5010;45.080;7.634;2023-02-18T10:49:55;22.63;;;20.73;;
9942;SDS011;5010;45.080;7.634;2023-02-18T10:52:25;20.33;;;17.50;;
9942;SDS011;5010;45.080;7.634;2023-02-18T10:54:59;19.33;;;17.77;;
9942;SDS011;5010;45.080;7.634;2023-02-18T10:57:28;23.30;;;18.60;;
9942;SDS011;5010;45.080;7.634;2023-02-18T10:59:58;19.48;;;16.17;;
9942;SDS011;5010;45.080;7.634;2023-02-18T11:02:34;18.80;;;17.85;;
9942;SDS011;5010;45.080;7.634;2023-02-18T11:05:05;20.83;;;18.75;;
9942;SDS011;5010;45.080;7.634;2023-02-18T11:07:45;20.15;;;19.05;;
9942;SDS011;5010;45.080;7.634;2023-02-18T11:10:15;19.63;;;18.65;;
9942;SDS011;5010;45.080;7.634;2023-02-18T11:12:45;18.50;;;17.30;;
9942;SDS011;5010;45.080;7.634;2023-02-18T11:15:16;21.98;;;20.13;;
9942;SDS011;5010;45.080;7.634;2023-02-18T11:17:46;17.58;;;16.67;;
9942;SDS011;5010;45.080;7.634;2023-02-18T11:20:20;18.27;;;17.05;;
9942;SDS011;5010;45.080;7.634;2023-02-18T11:22:57;17.00;;;16.10;;
9942;SDS011;5010;45.080;7.634;2023-02-18T11:25:54;19.25;;;18.13;;
9942;SDS011;5010;45.080;7.634;2023-02-18T11:28:32;18.83;;;17.02;;
9942;SDS011;5010;45.080;7.634;2023-02-18T11:31:09;16.63;;;15.68;;
9942;SDS011;5010;45.080;7.634;2023-02-18T11:33:42;18.52;;;17.60;;
9942;SDS011;5010;45.080;7.634;2023-02-18T11:36:16;18.58;;;17.30;;
9942;SDS011;5010;45.080;7.634;2023-02-18T11:38:50;17.15;;;16.05;;
9942;SDS011;5010;45.080;7.634;2023-02-18T11:41:21;16.85;;;15.98;;
9942;SDS011;5010;45.080;7.634;2023-02-18T11:43:55;17.27;;;15.15;;
9942;SDS011;5010;45.080;7.634;2023-02-18T11:46:24;21.80;;;17.65;;
9942;SDS011;5010;45.080;7.634;2023-02-18T11:48:52;19.42;;;16.17;;
9942;SDS011;5010;45.080;7.634;2023-02-18T11:51:21;22.50;;;21.40;;
9942;SDS011;5010;45.080;7.634;2023-02-18T11:53:54;16.13;;;15.32;;
9942;SDS011;5010;45.080;7.634;2023-02-18T11:56:24;16.83;;;15.88;;
9942;SDS011;5010;45.080;7.634;2023-02-18T11:58:54;17.17;;;15.35;;
9942;SDS011;5010;45.080;7.634;2023-02-18T12:01:31;16.38;;;15.55;;
9942;SDS011;5010;45.080;7.634;2023-02-18T12:04:11;12.73;;;12.07;;
9942;SDS011;5010;45.080;7.634;2023-02-18T12:06:41;19.25;;;16.90;;
9942;SDS011;5010;45.080;7.634;2023-02-18T12:09:18;19.45;;;18.38;;
9942;SDS011;5010;45.080;7.634;2023-02-18T12:11:50;17.00;;;16.10;;
9942;SDS011;5010;45.080;7.634;2023-02-18T12:14:19;18.15;;;16.30;;
9942;SDS011;5010;45.080;7.634;2023-02-18T12:16:56;22.58;;;19.35;;
9942;SDS011;5010;45.080;7.634;2023-02-18T12:19:47;19.13;;;18.13;;
9942;SDS011;5010;45.080;7.634;2023-02-18T12:22:28;18.30;;;16.30;;
9942;SDS011;5010;45.080;7.634;2023-02-18T12:27:56;19.35;;;16.15;;
9942;SDS011;5010;45.080;7.634;2023-02-18T12:30:38;18.35;;;17.45;;
9942;SDS011;5010;45.080;7.634;2023-02-18T12:33:24;21.77;;;17.65;;
9942;SDS011;5010;45.080;7.634;2023-02-18T12:36:01;20.95;;;18.40;;
9942;SDS011;5010;45.080;7.634;2023-02-18T12:38:48;21.50;;;19.27;;
9942;SDS011;5010;45.080;7.634;2023-02-18T12:41:28;19.80;;;18.80;;
9942;SDS011;5010;45.080;7.634;2023-02-18T12:44:07;14.35;;;12.70;;
9942;SDS011;5010;45.080;7.634;2023-02-18T12:46:55;18.38;;;15.98;;
9942;SDS011;5010;45.080;7.634;2023-02-18T12:49:47;18.02;;;16.25;;
9942;SDS011;5010;45.080;7.634;2023-02-18T12:52:38;20.27;;;19.27;;
9942;SDS011;5010;45.080;7.634;2023-02-18T12:55:25;19.38;;;18.38;;
9942;SDS011;5010;45.080;7.634;2023-02-18T12:58:04;17.90;;;16.98;;
9942;SDS011;5010;45.080;7.634;2023-02-18T13:00:47;20.95;;;19.90;;
9942;SDS011;5010;45.080;7.634;2023-02-18T13:03:50;20.70;;;19.70;;
9942;SDS011;5010;45.080;7.634;2023-02-18T13:09:37;18.65;;;17.73;;
9942;SDS011;5010;45.080;7.634;2023-02-18T13:12:19;18.42;;;16.77;;
9942;SDS011;5010;45.080;7.634;2023-02-18T13:14:54;19.05;;;18.08;;
9942;SDS011;5010;45.080;7.634;2023-02-18T13:17:28;20.05;;;18.40;;
9942;SDS011;5010;45.080;7.634;2023-02-18T13:20:00;20.25;;;19.25;;
9942;SDS011;5010;45.080;7.634;2023-02-18T13:22:30;12.85;;;12.18;;
9942;SDS011;5010;45.080;7.634;2023-02-18T13:24:58;18.65;;;17.75;;
9942;SDS011;5010;45.080;7.634;2023-02-18T13:27:27;19.63;;;18.63;;
9942;SDS011;5010;45.080;7.634;2023-02-18T13:30:05;19.02;;;17.65;;
9942;SDS011;5010;45.080;7.634;2023-02-18T13:32:44;18.38;;;17.48;;
9942;SDS011;5010;45.080;7.634;2023-02-18T13:35:24;13.88;;;13.18;;
9942;SDS011;5010;45.080;7.634;2023-02-18T13:38:02;17.90;;;17.00;;
9942;SDS011;5010;45.080;7.634;2023-02-18T13:40:45;18.95;;;18.00;;
9942;SDS011;5010;45.080;7.634;2023-02-18T13:43:17;17.65;;;16.77;;
9942;SDS011;5010;45.080;7.634;2023-02-18T13:48:45;20.17;;;18.30;;
9942;SDS011;5010;45.080;7.634;2023-02-18T13:51:15;21.80;;;17.70;;
9942;SDS011;5010;45.080;7.634;2023-02-18T13:53:52;19.17;;;18.02;;
9942;SDS011;5010;45.080;7.634;2023-02-18T13:56:26;18.42;;;16.42;;
9942;SDS011;5010;45.080;7.634;2023-02-18T13:58:55;17.38;;;16.33;;
9942;SDS011;5010;45.080;7.634;2023-02-18T14:01:35;18.25;;;16.92;;
9942;SDS011;5010;45.080;7.634;2023-02-18T14:07:20;16.85;;;15.98;;
9942;SDS011;5010;45.080;7.634;2023-02-18T14:09:51;16.45;;;15.65;;
9942;SDS011;5010;45.080;7.634;2023-02-18T14:12:34;18.13;;;17.23;;
9942;SDS011;5010;45.080;7.634;2023-02-18T14:18:08;16.80;;;15.95;;
9942;SDS011;5010;45.080;7.634;2023-02-18T14:20:48;18.05;;;17.15;;
9942;SDS011;5010;45.080;7.634;2023-02-18T14:26:08;18.15;;;16.95;;
9942;SDS011;5010;45.080;7.634;2023-02-18T14:28:43;17.63;;;16.73;;
9942;SDS011;5010;45.080;7.634;2023-02-18T14:31:21;16.75;;;15.90;;
9942;SDS011;5010;45.080;7.634;2023-02-18T14:34:06;18.23;;;17.33;;
9942;SDS011;5010;45.080;7.634;2023-02-18T14:37:05;17.50;;;16.48;;
9942;SDS011;5010;45.080;7.634;2023-02-18T14:39:47;19.85;;;18.30;;
9942;SDS011;5010;45.080;7.634;2023-02-18T14:42:23;18.35;;;17.45;;
9942;SDS011;5010;45.080;7.634;2023-02-18T14:47:50;16.30;;;15.50;;
9942;SDS011;5010;45.080;7.634;2023-02-18T14:50:29;16.23;;;15.43;;
9942;SDS011;5010;45.080;7.634;2023-02-18T14:52:59;16.30;;;15.50;;
9942;SDS011;5010;45.080;7.634;2023-02-18T14:55:31;16.83;;;14.98;;
9942;SDS011;5010;45.080;7.634;2023-02-18T14:58:01;16.63;;;14.82;;
9942;SDS011;5010;45.080;7.634;2023-02-18T15:00:32;16.52;;;15.23;;
9942;SDS011;5010;45.080;7.634;2023-02-18T15:03:08;19.70;;;17.38;;
9942;SDS011;5010;45.080;7.634;2023-02-18T15:05:38;15.80;;;15.00;;
9942;SDS011;5010;45.080;7.634;2023-02-18T15:08:06;17.77;;;16.88;;
9942;SDS011;5010;45.080;7.634;2023-02-18T15:10:43;17.00;;;15.95;;
9942;SDS011;5010;45.080;7.634;2023-02-18T15:13:13;18.73;;;17.77;;
9942;SDS011;5010;45.080;7.634;2023-02-18T15:15:43;19.35;;;16.80;;
9942;SDS011;5010;45.080;7.634;2023-02-18T15:18:17;16.02;;;13.93;;
9942;SDS011;5010;45.080;7.634;2023-02-18T15:20:48;17.58;;;16.48;;
9942;SDS011;5010;45.080;7.634;2023-02-18T15:23:16;17.90;;;16.50;;
9942;SDS011;5010;45.080;7.634;2023-02-18T15:25:46;22.65;;;16.70;;
9942;SDS011;5010;45.080;7.634;2023-02-18T15:28:25;17.52;;;16.05;;
9942;SDS011;5010;45.080;7.634;2023-02-18T15:30:55;17.65;;;16.20;;
9942;SDS011;5010;45.080;7.634;2023-02-18T15:33:23;19.60;;;18.23;;
9942;SDS011;5010;45.080;7.634;2023-02-18T15:35:50;17.52;;;16.63;;
9942;SDS011;5010;45.080;7.634;2023-02-18T15:38:17;18.50;;;16.52;;
9942;SDS011;5010;45.080;7.634;2023-02-18T15:40:48;18.38;;;16.02;;